map of SRX home
SRX - Airport
Location
City:  Sert, Libyan Arab Jamahiriya (Libya)
ICAO:HLGD
IATA:SRX

Details
Type:Airport (Aerodrome, Airfield)
Use:Military
Latitude:3103'48"N (31.063457)
Longitude:1635'42"E (16.595005)
Datum:WGS 1984
Elevation:267 ft (81 m)
Variation:3.17E (WMM2015v2 magnetic declination)
0.11 annual change
Runways:2
Longest:11807 × 148 ft (3599 × 45 m), paved

Time
Time Zone:UTC+2
Local Time:

Weather
TAF:HLGD 040500Z 0406/0506 33012KT 8000 NSC
BECMG 0410/0412 27012KT FEW025 SCT080
BECMG 0418/0420 32012KT PROB30
TEMPO 0415/0418 5000 SHRA SCT025 BKN070
BECMG 0500/0502 25010KT

Related Locations
Nearby:
Farthest:RAR: 11717 mi / 18856 km
Avarua [Rarotonga Intl], Rarotonga Island, CK

Find:

   beyond  
but within

Other Information
Maps:
NOTAMs:
Links:
Sources:

  
  • flag of Libyan Arab Jamahiriya (Libya)
  

Sectional Chart

Flight Planning
at skyvector.com

Satellite Image

Google Maps Satellite view

 

Copyright © 2004-2019 Karl L. Swartz. All rights reserved.
The Great Circle Mapper name and logo are trademarks of the Great Circle Mapper.
All other trademarks mentioned herein belong to their respective owners.
Please see credits for attibutions and further copyright information.

  Follow gcmap on Facebook Follow gcmap on Twitter GCmap on LinkedIn

hCard Microformat

Geo Microformat